sensor_id;sensor_type;location;lat;lon;timestamp;P1;durP1;ratioP1;P2;durP2;ratioP2
36233;SDS011;43467;50.890;5.982;2022-08-01T00:00:38;2.00;;;1.80;;
36233;SDS011;43467;50.890;5.982;2022-08-01T00:03:03;3.30;;;2.00;;
36233;SDS011;43467;50.890;5.982;2022-08-01T00:05:29;3.15;;;1.83;;
36233;SDS011;43467;50.890;5.982;2022-08-01T00:07:54;6.53;;;2.63;;
36233;SDS011;43467;50.890;5.982;2022-08-01T00:10:20;2.30;;;1.75;;
36233;SDS011;43467;50.890;5.982;2022-08-01T00:12:45;3.42;;;1.80;;
36233;SDS011;43467;50.890;5.982;2022-08-01T00:15:12;3.13;;;1.73;;
36233;SDS011;43467;50.890;5.982;2022-08-01T00:17:39;4.35;;;2.35;;
36233;SDS011;43467;50.890;5.982;2022-08-01T00:20:05;3.53;;;2.10;;
36233;SDS011;43467;50.890;5.982;2022-08-01T00:22:33;3.38;;;1.80;;
36233;SDS011;43467;50.890;5.982;2022-08-01T00:24:59;2.97;;;1.90;;
36233;SDS011;43467;50.890;5.982;2022-08-01T00:27:25;3.38;;;1.80;;
36233;SDS011;43467;50.890;5.982;2022-08-01T00:29:50;3.75;;;1.90;;
36233;SDS011;43467;50.890;5.982;2022-08-01T00:32:16;3.22;;;2.15;;
36233;SDS011;43467;50.890;5.982;2022-08-01T00:34:41;2.47;;;1.75;;
36233;SDS011;43467;50.890;5.982;2022-08-01T00:37:07;4.50;;;2.00;;
36233;SDS011;43467;50.890;5.982;2022-08-01T00:39:32;4.28;;;1.65;;
36233;SDS011;43467;50.890;5.982;2022-08-01T00:41:58;3.00;;;2.08;;
36233;SDS011;43467;50.890;5.982;2022-08-01T00:44:24;2.85;;;2.08;;
36233;SDS011;43467;50.890;5.982;2022-08-01T00:46:50;4.22;;;1.95;;
36233;SDS011;43467;50.890;5.982;2022-08-01T00:49:15;2.20;;;1.83;;
36233;SDS011;43467;50.890;5.982;2022-08-01T00:51:41;2.92;;;1.95;;
36233;SDS011;43467;50.890;5.982;2022-08-01T00:54:06;3.88;;;2.20;;
36233;SDS011;43467;50.890;5.982;2022-08-01T00:56:32;3.28;;;1.65;;
36233;SDS011;43467;50.890;5.982;2022-08-01T00:58:57;4.32;;;1.70;;
36233;SDS011;43467;50.890;5.982;2022-08-01T01:01:23;3.40;;;2.15;;
36233;SDS011;43467;50.890;5.982;2022-08-01T01:03:49;2.45;;;2.00;;
36233;SDS011;43467;50.890;5.982;2022-08-01T01:06:30;3.65;;;2.38;;
36233;SDS011;43467;50.890;5.982;2022-08-01T01:12:13;2.90;;;1.88;;
36233;SDS011;43467;50.890;5.982;2022-08-01T01:14:56;3.55;;;1.95;;
36233;SDS011;43467;50.890;5.982;2022-08-01T01:18:01;2.75;;;1.70;;
36233;SDS011;43467;50.890;5.982;2022-08-01T01:20:21;3.03;;;1.90;;
36233;SDS011;43467;50.890;5.982;2022-08-01T01:25:23;2.60;;;1.70;;
36233;SDS011;43467;50.890;5.982;2022-08-01T01:28:08;4.00;;;1.88;;
36233;SDS011;43467;50.890;5.982;2022-08-01T01:30:41;3.58;;;2.03;;
36233;SDS011;43467;50.890;5.982;2022-08-01T01:33:09;4.82;;;1.77;;
36233;SDS011;43467;50.890;5.982;2022-08-01T01:35:38;3.55;;;1.80;;
36233;SDS011;43467;50.890;5.982;2022-08-01T01:38:22;2.83;;;1.88;;
36233;SDS011;43467;50.890;5.982;2022-08-01T01:40:52;3.40;;;2.00;;
36233;SDS011;43467;50.890;5.982;2022-08-01T01:43:18;3.90;;;1.65;;
36233;SDS011;43467;50.890;5.982;2022-08-01T01:45:46;4.13;;;2.10;;
36233;SDS011;43467;50.890;5.982;2022-08-01T01:48:16;2.72;;;1.95;;
36233;SDS011;43467;50.890;5.982;2022-08-01T01:50:44;3.03;;;1.98;;
36233;SDS011;43467;50.890;5.982;2022-08-01T01:53:12;3.97;;;1.75;;
36233;SDS011;43467;50.890;5.982;2022-08-01T01:55:39;2.33;;;1.77;;
36233;SDS011;43467;50.890;5.982;2022-08-01T01:58:06;4.93;;;2.10;;
36233;SDS011;43467;50.890;5.982;2022-08-01T02:00:34;4.00;;;2.10;;
36233;SDS011;43467;50.890;5.982;2022-08-01T02:03:02;2.20;;;1.60;;
36233;SDS011;43467;50.890;5.982;2022-08-01T02:05:30;3.80;;;1.90;;
36233;SDS011;43467;50.890;5.982;2022-08-01T02:07:59;4.93;;;1.67;;
36233;SDS011;43467;50.890;5.982;2022-08-01T02:10:27;3.35;;;1.70;;
36233;SDS011;43467;50.890;5.982;2022-08-01T02:12:54;3.22;;;1.88;;
36233;SDS011;43467;50.890;5.982;2022-08-01T02:15:22;4.82;;;1.70;;
36233;SDS011;43467;50.890;5.982;2022-08-01T02:17:49;3.08;;;1.83;;
36233;SDS011;43467;50.890;5.982;2022-08-01T02:20:16;2.38;;;1.63;;
36233;SDS011;43467;50.890;5.982;2022-08-01T02:22:44;3.80;;;2.20;;
36233;SDS011;43467;50.890;5.982;2022-08-01T02:25:23;3.47;;;1.95;;
36233;SDS011;43467;50.890;5.982;2022-08-01T02:27:57;3.70;;;2.30;;
36233;SDS011;43467;50.890;5.982;2022-08-01T02:30:30;2.47;;;1.80;;
36233;SDS011;43467;50.890;5.982;2022-08-01T02:33:00;3.95;;;1.90;;
36233;SDS011;43467;50.890;5.982;2022-08-01T02:35:30;4.10;;;1.70;;
36233;SDS011;43467;50.890;5.982;2022-08-01T02:37:58;2.35;;;1.60;;
36233;SDS011;43467;50.890;5.982;2022-08-01T02:40:26;3.75;;;2.10;;
36233;SDS011;43467;50.890;5.982;2022-08-01T02:42:54;3.50;;;2.08;;
36233;SDS011;43467;50.890;5.982;2022-08-01T02:45:22;2.80;;;1.75;;
36233;SDS011;43467;50.890;5.982;2022-08-01T02:47:50;4.57;;;2.17;;
36233;SDS011;43467;50.890;5.982;2022-08-01T02:50:19;4.60;;;1.80;;
36233;SDS011;43467;50.890;5.982;2022-08-01T02:52:48;5.20;;;2.20;;
36233;SDS011;43467;50.890;5.982;2022-08-01T02:55:16;3.85;;;1.90;;
36233;SDS011;43467;50.890;5.982;2022-08-01T02:57:45;5.65;;;2.33;;
36233;SDS011;43467;50.890;5.982;2022-08-01T03:00:13;3.30;;;2.28;;
36233;SDS011;43467;50.890;5.982;2022-08-01T03:02:40;6.13;;;2.38;;
36233;SDS011;43467;50.890;5.982;2022-08-01T03:05:08;2.22;;;1.85;;
36233;SDS011;43467;50.890;5.982;2022-08-01T03:07:35;4.93;;;2.42;;
36233;SDS011;43467;50.890;5.982;2022-08-01T03:10:02;6.72;;;2.08;;
36233;SDS011;43467;50.890;5.982;2022-08-01T03:12:29;2.47;;;2.05;;
36233;SDS011;43467;50.890;5.982;2022-08-01T03:14:58;3.85;;;2.15;;
36233;SDS011;43467;50.890;5.982;2022-08-01T03:17:25;3.70;;;2.15;;
36233;SDS011;43467;50.890;5.982;2022-08-01T03:19:53;4.00;;;2.33;;
36233;SDS011;43467;50.890;5.982;2022-08-01T03:22:21;4.13;;;2.28;;
36233;SDS011;43467;50.890;5.982;2022-08-01T03:24:51;4.43;;;2.05;;
36233;SDS011;43467;50.890;5.982;2022-08-01T03:27:18;5.93;;;2.22;;
36233;SDS011;43467;50.890;5.982;2022-08-01T03:29:45;4.38;;;2.58;;
36233;SDS011;43467;50.890;5.982;2022-08-01T03:32:12;3.80;;;2.30;;
36233;SDS011;43467;50.890;5.982;2022-08-01T03:34:39;4.70;;;2.63;;
36233;SDS011;43467;50.890;5.982;2022-08-01T03:37:06;5.00;;;2.28;;
36233;SDS011;43467;50.890;5.982;2022-08-01T03:39:55;6.45;;;2.35;;
36233;SDS011;43467;50.890;5.982;2022-08-01T03:42:31;6.45;;;2.80;;
36233;SDS011;43467;50.890;5.982;2022-08-01T03:44:59;5.97;;;2.75;;
36233;SDS011;43467;50.890;5.982;2022-08-01T03:47:30;4.15;;;2.47;;
36233;SDS011;43467;50.890;5.982;2022-08-01T03:49:58;3.25;;;2.20;;
36233;SDS011;43467;50.890;5.982;2022-08-01T03:52:26;6.38;;;2.78;;
36233;SDS011;43467;50.890;5.982;2022-08-01T03:54:54;6.40;;;2.40;;
36233;SDS011;43467;50.890;5.982;2022-08-01T03:57:21;4.93;;;3.17;;
36233;SDS011;43467;50.890;5.982;2022-08-01T03:59:48;4.82;;;2.45;;
36233;SDS011;43467;50.890;5.982;2022-08-01T04:02:14;3.67;;;2.17;;
36233;SDS011;43467;50.890;5.982;2022-08-01T04:04:40;3.97;;;2.38;;
36233;SDS011;43467;50.890;5.982;2022-08-01T04:07:20;5.85;;;2.20;;
36233;SDS011;43467;50.890;5.982;2022-08-01T04:09:49;3.88;;;1.77;;
36233;SDS011;43467;50.890;5.982;2022-08-01T04:12:15;6.55;;;2.47;;
36233;SDS011;43467;50.890;5.982;2022-08-01T04:14:41;5.70;;;2.70;;
36233;SDS011;43467;50.890;5.982;2022-08-01T04:17:06;4.55;;;2.30;;
36233;SDS011;43467;50.890;5.982;2022-08-01T04:19:31;3.92;;;2.38;;
36233;SDS011;43467;50.890;5.982;2022-08-01T04:21:57;3.58;;;2.50;;
36233;SDS011;43467;50.890;5.982;2022-08-01T04:24:22;7.07;;;2.72;;
36233;SDS011;43467;50.890;5.982;2022-08-01T04:26:49;9.05;;;3.22;;
36233;SDS011;43467;50.890;5.982;2022-08-01T04:29:16;4.88;;;2.83;;
36233;SDS011;43467;50.890;5.982;2022-08-01T04:31:45;5.30;;;2.60;;
36233;SDS011;43467;50.890;5.982;2022-08-01T04:34:14;3.60;;;2.10;;
36233;SDS011;43467;50.890;5.982;2022-08-01T04:36:42;7.05;;;3.05;;
36233;SDS011;43467;50.890;5.982;2022-08-01T04:39:09;6.05;;;2.83;;
36233;SDS011;43467;50.890;5.982;2022-08-01T04:41:36;3.97;;;3.08;;
36233;SDS011;43467;50.890;5.982;2022-08-01T04:44:03;5.68;;;2.88;;
36233;SDS011;43467;50.890;5.982;2022-08-01T04:46:29;6.57;;;3.25;;
36233;SDS011;43467;50.890;5.982;2022-08-01T04:48:57;6.15;;;2.97;;
36233;SDS011;43467;50.890;5.982;2022-08-01T04:51:23;7.57;;;3.35;;
36233;SDS011;43467;50.890;5.982;2022-08-01T04:53:49;8.73;;;3.17;;
36233;SDS011;43467;50.890;5.982;2022-08-01T04:56:18;8.20;;;3.67;;
36233;SDS011;43467;50.890;5.982;2022-08-01T04:58:46;7.38;;;3.17;;
36233;SDS011;43467;50.890;5.982;2022-08-01T05:01:12;5.70;;;3.47;;
36233;SDS011;43467;50.890;5.982;2022-08-01T05:03:37;7.57;;;3.70;;
36233;SDS011;43467;50.890;5.982;2022-08-01T05:06:03;6.85;;;3.33;;
36233;SDS011;43467;50.890;5.982;2022-08-01T05:08:28;5.78;;;3.30;;
36233;SDS011;43467;50.890;5.982;2022-08-01T05:10:54;7.78;;;3.70;;
36233;SDS011;43467;50.890;5.982;2022-08-01T05:13:20;6.28;;;4.25;;
36233;SDS011;43467;50.890;5.982;2022-08-01T05:15:45;5.90;;;4.38;;
36233;SDS011;43467;50.890;5.982;2022-08-01T05:18:11;6.97;;;3.63;;
36233;SDS011;43467;50.890;5.982;2022-08-01T05:20:36;7.45;;;4.40;;
36233;SDS011;43467;50.890;5.982;2022-08-01T05:23:02;6.55;;;3.80;;
36233;SDS011;43467;50.890;5.982;2022-08-01T05:25:29;7.90;;;4.68;;
36233;SDS011;43467;50.890;5.982;2022-08-01T05:27:54;10.88;;;5.38;;
36233;SDS011;43467;50.890;5.982;2022-08-01T05:30:20;9.27;;;4.70;;
36233;SDS011;43467;50.890;5.982;2022-08-01T05:32:45;9.35;;;4.40;;
36233;SDS011;43467;50.890;5.982;2022-08-01T05:35:10;8.25;;;4.93;;
36233;SDS011;43467;50.890;5.982;2022-08-01T05:37:36;9.45;;;4.55;;
36233;SDS011;43467;50.890;5.982;2022-08-01T05:40:02;11.85;;;5.15;;
36233;SDS011;43467;50.890;5.982;2022-08-01T05:42:28;9.77;;;5.32;;
36233;SDS011;43467;50.890;5.982;2022-08-01T05:44:53;13.88;;;6.53;;
36233;SDS011;43467;50.890;5.982;2022-08-01T05:47:19;11.85;;;5.82;;
36233;SDS011;43467;50.890;5.982;2022-08-01T05:49:44;12.00;;;6.07;;
36233;SDS011;43467;50.890;5.982;2022-08-01T05:52:10;10.70;;;5.88;;
36233;SDS011;43467;50.890;5.982;2022-08-01T05:54:36;13.05;;;5.93;;
36233;SDS011;43467;50.890;5.982;2022-08-01T05:57:02;12.88;;;6.20;;
36233;SDS011;43467;50.890;5.982;2022-08-01T05:59:28;14.23;;;6.90;;
36233;SDS011;43467;50.890;5.982;2022-08-01T06:01:54;10.43;;;5.75;;
36233;SDS011;43467;50.890;5.982;2022-08-01T06:04:20;13.65;;;7.38;;
36233;SDS011;43467;50.890;5.982;2022-08-01T06:06:45;12.23;;;7.85;;
36233;SDS011;43467;50.890;5.982;2022-08-01T06:09:11;14.85;;;8.93;;
36233;SDS011;43467;50.890;5.982;2022-08-01T06:11:36;11.50;;;8.52;;
36233;SDS011;43467;50.890;5.982;2022-08-01T06:14:02;16.25;;;8.90;;
36233;SDS011;43467;50.890;5.982;2022-08-01T06:16:27;18.35;;;10.48;;
36233;SDS011;43467;50.890;5.982;2022-08-01T06:18:52;18.67;;;10.05;;
36233;SDS011;43467;50.890;5.982;2022-08-01T06:21:18;16.52;;;10.52;;
36233;SDS011;43467;50.890;5.982;2022-08-01T06:23:43;16.67;;;10.02;;
36233;SDS011;43467;50.890;5.982;2022-08-01T06:26:08;18.33;;;10.35;;
36233;SDS011;43467;50.890;5.982;2022-08-01T06:28:35;17.63;;;9.93;;
36233;SDS011;43467;50.890;5.982;2022-08-01T06:31:00;14.68;;;9.25;;
36233;SDS011;43467;50.890;5.982;2022-08-01T06:33:26;16.20;;;10.70;;
36233;SDS011;43467;50.890;5.982;2022-08-01T06:35:52;17.20;;;9.50;;
36233;SDS011;43467;50.890;5.982;2022-08-01T06:38:17;18.42;;;10.43;;
36233;SDS011;43467;50.890;5.982;2022-08-01T06:40:43;17.38;;;10.10;;
36233;SDS011;43467;50.890;5.982;2022-08-01T06:43:08;17.70;;;10.13;;
36233;SDS011;43467;50.890;5.982;2022-08-01T06:45:36;16.60;;;10.25;;
36233;SDS011;43467;50.890;5.982;2022-08-01T06:48:01;20.08;;;11.80;;
36233;SDS011;43467;50.890;5.982;2022-08-01T06:50:27;17.63;;;10.52;;
36233;SDS011;43467;50.890;5.982;2022-08-01T06:52:52;15.25;;;9.88;;
36233;SDS011;43467;50.890;5.982;2022-08-01T06:55:18;19.50;;;10.25;;
36233;SDS011;43467;50.890;5.982;2022-08-01T06:57:48;14.85;;;10.52;;
36233;SDS011;43467;50.890;5.982;2022-08-01T07:00:15;18.17;;;10.57;;
36233;SDS011;43467;50.890;5.982;2022-08-01T07:02:43;16.70;;;9.73;;
36233;SDS011;43467;50.890;5.982;2022-08-01T07:05:10;21.20;;;10.82;;
36233;SDS011;43467;50.890;5.982;2022-08-01T07:07:35;14.98;;;10.80;;
36233;SDS011;43467;50.890;5.982;2022-08-01T07:10:01;18.48;;;11.20;;
36233;SDS011;43467;50.890;5.982;2022-08-01T07:12:26;22.90;;;11.20;;
36233;SDS011;43467;50.890;5.982;2022-08-01T07:14:51;20.60;;;12.00;;
36233;SDS011;43467;50.890;5.982;2022-08-01T07:17:17;19.13;;;11.80;;
36233;SDS011;43467;50.890;5.982;2022-08-01T07:19:42;17.63;;;10.93;;
36233;SDS011;43467;50.890;5.982;2022-08-01T07:22:08;17.70;;;11.02;;
36233;SDS011;43467;50.890;5.982;2022-08-01T07:24:33;16.75;;;11.95;;
36233;SDS011;43467;50.890;5.982;2022-08-01T07:26:59;16.33;;;10.75;;
36233;SDS011;43467;50.890;5.982;2022-08-01T07:29:24;16.52;;;11.73;;
36233;SDS011;43467;50.890;5.982;2022-08-01T07:31:51;18.50;;;12.15;;
36233;SDS011;43467;50.890;5.982;2022-08-01T07:34:17;19.85;;;12.18;;
36233;SDS011;43467;50.890;5.982;2022-08-01T07:36:43;19.48;;;11.95;;
36233;SDS011;43467;50.890;5.982;2022-08-01T07:39:08;20.95;;;12.93;;
36233;SDS011;43467;50.890;5.982;2022-08-01T07:41:34;18.42;;;13.32;;
36233;SDS011;43467;50.890;5.982;2022-08-01T07:43:59;24.45;;;14.27;;
36233;SDS011;43467;50.890;5.982;2022-08-01T07:46:24;20.67;;;12.15;;
36233;SDS011;43467;50.890;5.982;2022-08-01T07:48:50;17.98;;;12.40;;
36233;SDS011;43467;50.890;5.982;2022-08-01T07:51:15;22.98;;;12.93;;
36233;SDS011;43467;50.890;5.982;2022-08-01T07:53:40;19.80;;;12.82;;
36233;SDS011;43467;50.890;5.982;2022-08-01T07:56:06;19.10;;;12.10;;
36233;SDS011;43467;50.890;5.982;2022-08-01T07:58:32;22.90;;;13.20;;
36233;SDS011;43467;50.890;5.982;2022-08-01T08:00:58;20.73;;;12.13;;
36233;SDS011;43467;50.890;5.982;2022-08-01T08:03:23;22.33;;;11.82;;
36233;SDS011;43467;50.890;5.982;2022-08-01T08:05:49;16.95;;;11.73;;
36233;SDS011;43467;50.890;5.982;2022-08-01T08:08:14;18.67;;;12.60;;
36233;SDS011;43467;50.890;5.982;2022-08-01T08:10:42;18.63;;;11.20;;
36233;SDS011;43467;50.890;5.982;2022-08-01T08:13:07;15.55;;;10.15;;
36233;SDS011;43467;50.890;5.982;2022-08-01T08:15:32;14.73;;;10.13;;
36233;SDS011;43467;50.890;5.982;2022-08-01T08:17:58;15.57;;;10.13;;
36233;SDS011;43467;50.890;5.982;2022-08-01T08:20:23;12.80;;;9.23;;
36233;SDS011;43467;50.890;5.982;2022-08-01T08:22:55;16.13;;;10.45;;
36233;SDS011;43467;50.890;5.982;2022-08-01T08:25:23;18.33;;;11.85;;
36233;SDS011;43467;50.890;5.982;2022-08-01T08:27:48;15.63;;;11.13;;
36233;SDS011;43467;50.890;5.982;2022-08-01T08:30:14;16.17;;;11.07;;
36233;SDS011;43467;50.890;5.982;2022-08-01T08:32:40;15.35;;;9.77;;
36233;SDS011;43467;50.890;5.982;2022-08-01T08:35:06;14.82;;;9.38;;
36233;SDS011;43467;50.890;5.982;2022-08-01T08:37:33;12.40;;;8.98;;
36233;SDS011;43467;50.890;5.982;2022-08-01T08:39:59;11.25;;;8.75;;
36233;SDS011;43467;50.890;5.982;2022-08-01T08:42:24;15.00;;;10.13;;
36233;SDS011;43467;50.890;5.982;2022-08-01T08:44:50;12.77;;;10.77;;
36233;SDS011;43467;50.890;5.982;2022-08-01T08:47:15;23.00;;;10.98;;
36233;SDS011;43467;50.890;5.982;2022-08-01T08:49:43;14.73;;;10.23;;
36233;SDS011;43467;50.890;5.982;2022-08-01T08:52:09;13.27;;;9.60;;
36233;SDS011;43467;50.890;5.982;2022-08-01T08:54:37;21.65;;;10.75;;
36233;SDS011;43467;50.890;5.982;2022-08-01T08:57:03;12.18;;;8.32;;
36233;SDS011;43467;50.890;5.982;2022-08-01T08:59:30;16.30;;;10.10;;
36233;SDS011;43467;50.890;5.982;2022-08-01T09:01:56;16.10;;;9.20;;
36233;SDS011;43467;50.890;5.982;2022-08-01T09:04:22;13.98;;;9.35;;
36233;SDS011;43467;50.890;5.982;2022-08-01T09:06:48;15.30;;;9.93;;
36233;SDS011;43467;50.890;5.982;2022-08-01T09:09:14;15.48;;;10.43;;
36233;SDS011;43467;50.890;5.982;2022-08-01T09:11:39;17.40;;;10.43;;
36233;SDS011;43467;50.890;5.982;2022-08-01T09:16:47;16.73;;;10.63;;
36233;SDS011;43467;50.890;5.982;2022-08-01T09:19:39;13.57;;;10.35;;
36233;SDS011;43467;50.890;5.982;2022-08-01T09:22:06;14.93;;;10.93;;
36233;SDS011;43467;50.890;5.982;2022-08-01T09:24:33;14.90;;;12.00;;
36233;SDS011;43467;50.890;5.982;2022-08-01T09:27:00;15.25;;;11.07;;
36233;SDS011;43467;50.890;5.982;2022-08-01T09:29:39;14.60;;;11.00;;
36233;SDS011;43467;50.890;5.982;2022-08-01T09:32:05;13.80;;;10.80;;
36233;SDS011;43467;50.890;5.982;2022-08-01T09:34:31;14.70;;;10.10;;
36233;SDS011;43467;50.890;5.982;2022-08-01T09:36:58;13.77;;;9.30;;
36233;SDS011;43467;50.890;5.982;2022-08-01T09:39:27;14.05;;;8.30;;
36233;SDS011;43467;50.890;5.982;2022-08-01T09:41:56;14.65;;;8.10;;
36233;SDS011;43467;50.890;5.982;2022-08-01T09:44:36;9.95;;;8.13;;
36233;SDS011;43467;50.890;5.982;2022-08-01T09:47:07;12.48;;;8.75;;
36233;SDS011;43467;50.890;5.982;2022-08-01T09:49:33;11.52;;;8.75;;
36233;SDS011;43467;50.890;5.982;2022-08-01T09:52:10;12.05;;;9.23;;
36233;SDS011;43467;50.890;5.982;2022-08-01T09:54:38;11.55;;;7.78;;
36233;SDS011;43467;50.890;5.982;2022-08-01T09:57:12;14.75;;;11.05;;
36233;SDS011;43467;50.890;5.982;2022-08-01T09:59:47;15.20;;;11.15;;
36233;SDS011;43467;50.890;5.982;2022-08-01T10:04:54;14.80;;;9.82;;
36233;SDS011;43467;50.890;5.982;2022-08-01T10:07:19;14.23;;;8.93;;
36233;SDS011;43467;50.890;5.982;2022-08-01T10:09:46;13.38;;;9.40;;
36233;SDS011;43467;50.890;5.982;2022-08-01T10:12:12;12.05;;;9.63;;
36233;SDS011;43467;50.890;5.982;2022-08-01T10:14:43;11.10;;;8.75;;
36233;SDS011;43467;50.890;5.982;2022-08-01T10:17:11;8.88;;;7.22;;
36233;SDS011;43467;50.890;5.982;2022-08-01T10:19:40;9.02;;;7.35;;
36233;SDS011;43467;50.890;5.982;2022-08-01T10:22:10;14.57;;;8.52;;
36233;SDS011;43467;50.890;5.982;2022-08-01T10:24:43;8.45;;;6.78;;
36233;SDS011;43467;50.890;5.982;2022-08-01T10:27:11;10.25;;;7.47;;
36233;SDS011;43467;50.890;5.982;2022-08-01T10:32:32;8.75;;;7.13;;
36233;SDS011;43467;50.890;5.982;2022-08-01T10:34:59;8.23;;;6.65;;
36233;SDS011;43467;50.890;5.982;2022-08-01T10:37:25;9.68;;;7.07;;
36233;SDS011;43467;50.890;5.982;2022-08-01T10:39:51;9.95;;;7.70;;
36233;SDS011;43467;50.890;5.982;2022-08-01T10:42:18;13.38;;;8.55;;
36233;SDS011;43467;50.890;5.982;2022-08-01T10:44:44;8.27;;;6.72;;
36233;SDS011;43467;50.890;5.982;2022-08-01T10:47:13;8.63;;;6.55;;
36233;SDS011;43467;50.890;5.982;2022-08-01T10:50:07;8.50;;;5.60;;
36233;SDS011;43467;50.890;5.982;2022-08-01T10:52:36;6.85;;;6.07;;
36233;SDS011;43467;50.890;5.982;2022-08-01T10:55:06;5.80;;;4.95;;
36233;SDS011;43467;50.890;5.982;2022-08-01T10:57:44;6.45;;;5.50;;
36233;SDS011;43467;50.890;5.982;2022-08-01T11:00:16;7.18;;;5.57;;
36233;SDS011;43467;50.890;5.982;2022-08-01T11:02:42;6.75;;;5.43;;
36233;SDS011;43467;50.890;5.982;2022-08-01T11:05:22;7.88;;;5.35;;
36233;SDS011;43467;50.890;5.982;2022-08-01T11:07:52;5.70;;;5.13;;
36233;SDS011;43467;50.890;5.982;2022-08-01T11:13:02;6.25;;;5.00;;
36233;SDS011;43467;50.890;5.982;2022-08-01T11:15:30;6.63;;;5.60;;
36233;SDS011;43467;50.890;5.982;2022-08-01T11:17:56;6.28;;;5.35;;
36233;SDS011;43467;50.890;5.982;2022-08-01T11:20:35;7.97;;;5.95;;
36233;SDS011;43467;50.890;5.982;2022-08-01T11:30:38;4.85;;;4.43;;
36233;SDS011;43467;50.890;5.982;2022-08-01T11:33:04;5.82;;;4.63;;
36233;SDS011;43467;50.890;5.982;2022-08-01T11:35:31;6.15;;;3.75;;
36233;SDS011;43467;50.890;5.982;2022-08-01T11:37:56;3.70;;;3.40;;
36233;SDS011;43467;50.890;5.982;2022-08-01T11:40:23;3.97;;;3.58;;
36233;SDS011;43467;50.890;5.982;2022-08-01T11:42:50;3.30;;;3.03;;
36233;SDS011;43467;50.890;5.982;2022-08-01T11:45:54;4.28;;;3.88;;
36233;SDS011;43467;50.890;5.982;2022-08-01T11:48:23;5.13;;;4.07;;
36233;SDS011;43467;50.890;5.982;2022-08-01T11:50:50;4.53;;;4.07;;
36233;SDS011;43467;50.890;5.982;2022-08-01T11:53:17;5.45;;;3.85;;
36233;SDS011;43467;50.890;5.982;2022-08-01T11:55:46;4.10;;;3.70;;
36233;SDS011;43467;50.890;5.982;2022-08-01T11:58:13;5.00;;;3.72;;
36233;SDS011;43467;50.890;5.982;2022-08-01T12:00:39;4.40;;;3.42;;
36233;SDS011;43467;50.890;5.982;2022-08-01T12:03:06;5.10;;;3.80;;
36233;SDS011;43467;50.890;5.982;2022-08-01T12:05:34;6.93;;;4.60;;
36233;SDS011;43467;50.890;5.982;2022-08-01T12:08:02;4.40;;;4.00;;
36233;SDS011;43467;50.890;5.982;2022-08-01T12:10:30;5.18;;;4.68;;
36233;SDS011;43467;50.890;5.982;2022-08-01T12:13:03;6.70;;;4.53;;
36233;SDS011;43467;50.890;5.982;2022-08-01T12:15:34;5.10;;;3.53;;
36233;SDS011;43467;50.890;5.982;2022-08-01T12:18:02;3.20;;;3.00;;
36233;SDS011;43467;50.890;5.982;2022-08-01T12:20:35;4.45;;;4.05;;
36233;SDS011;43467;50.890;5.982;2022-08-01T12:23:04;3.30;;;3.00;;
36233;SDS011;43467;50.890;5.982;2022-08-01T12:25:34;4.78;;;3.78;;
36233;SDS011;43467;50.890;5.982;2022-08-01T12:28:02;11.05;;;4.22;;
36233;SDS011;43467;50.890;5.982;2022-08-01T12:30:29;2.63;;;2.40;;
36233;SDS011;43467;50.890;5.982;2022-08-01T12:32:56;3.45;;;2.35;;
36233;SDS011;43467;50.890;5.982;2022-08-01T12:35:25;2.60;;;1.80;;
36233;SDS011;43467;50.890;5.982;2022-08-01T12:37:53;1.90;;;1.70;;
36233;SDS011;43467;50.890;5.982;2022-08-01T12:40:21;2.72;;;1.65;;
36233;SDS011;43467;50.890;5.982;2022-08-01T12:42:50;5.72;;;2.00;;
36233;SDS011;43467;50.890;5.982;2022-08-01T12:45:18;2.55;;;1.80;;
36233;SDS011;43467;50.890;5.982;2022-08-01T12:47:46;3.33;;;2.05;;
36233;SDS011;43467;50.890;5.982;2022-08-01T12:50:16;8.73;;;2.70;;
36233;SDS011;43467;50.890;5.982;2022-08-01T12:52:43;69.72;;;7.03;;
36233;SDS011;43467;50.890;5.982;2022-08-01T12:55:10;4.18;;;1.80;;
36233;SDS011;43467;50.890;5.982;2022-08-01T12:57:42;2.92;;;2.50;;
36233;SDS011;43467;50.890;5.982;2022-08-01T13:00:20;3.40;;;2.10;;
36233;SDS011;43467;50.890;5.982;2022-08-01T13:02:48;2.05;;;1.85;;
36233;SDS011;43467;50.890;5.982;2022-08-01T13:05:15;3.40;;;2.10;;
36233;SDS011;43467;50.890;5.982;2022-08-01T13:07:43;1.92;;;1.83;;
36233;SDS011;43467;50.890;5.982;2022-08-01T13:10:12;2.88;;;2.08;;
36233;SDS011;43467;50.890;5.982;2022-08-01T13:12:39;7.30;;;2.65;;
36233;SDS011;43467;50.890;5.982;2022-08-01T13:15:16;3.42;;;2.40;;
36233;SDS011;43467;50.890;5.982;2022-08-01T13:17:46;2.10;;;1.90;;
36233;SDS011;43467;50.890;5.982;2022-08-01T13:20:20;3.35;;;1.90;;
36233;SDS011;43467;50.890;5.982;2022-08-01T13:22:48;3.17;;;2.10;;
36233;SDS011;43467;50.890;5.982;2022-08-01T13:25:15;1.80;;;1.70;;
36233;SDS011;43467;50.890;5.982;2022-08-01T13:27:41;2.78;;;1.92;;
36233;SDS011;43467;50.890;5.982;2022-08-01T13:30:11;3.50;;;1.98;;
36233;SDS011;43467;50.890;5.982;2022-08-01T13:32:37;2.90;;;1.83;;
36233;SDS011;43467;50.890;5.982;2022-08-01T13:35:04;3.60;;;2.20;;
36233;SDS011;43467;50.890;5.982;2022-08-01T13:37:34;2.58;;;1.73;;
36233;SDS011;43467;50.890;5.982;2022-08-01T13:39:59;4.00;;;2.22;;
36233;SDS011;43467;50.890;5.982;2022-08-01T13:42:25;2.22;;;2.03;;
36233;SDS011;43467;50.890;5.982;2022-08-01T13:44:50;5.15;;;2.00;;
36233;SDS011;43467;50.890;5.982;2022-08-01T13:47:15;2.45;;;1.85;;
36233;SDS011;43467;50.890;5.982;2022-08-01T13:49:41;4.18;;;2.00;;
36233;SDS011;43467;50.890;5.982;2022-08-01T13:52:06;2.22;;;2.03;;
36233;SDS011;43467;50.890;5.982;2022-08-01T13:54:32;2.63;;;1.85;;
36233;SDS011;43467;50.890;5.982;2022-08-01T13:56:58;2.35;;;2.00;;
36233;SDS011;43467;50.890;5.982;2022-08-01T13:59:24;2.33;;;2.00;;
36233;SDS011;43467;50.890;5.982;2022-08-01T14:01:49;6.50;;;1.98;;
36233;SDS011;43467;50.890;5.982;2022-08-01T14:04:14;2.03;;;1.70;;
36233;SDS011;43467;50.890;5.982;2022-08-01T14:06:40;3.55;;;1.90;;
36233;SDS011;43467;50.890;5.982;2022-08-01T14:09:06;3.45;;;1.98;;
36233;SDS011;43467;50.890;5.982;2022-08-01T14:11:31;3.05;;;2.13;;
36233;SDS011;43467;50.890;5.982;2022-08-01T14:13:57;2.38;;;1.92;;
36233;SDS011;43467;50.890;5.982;2022-08-01T14:16:23;2.95;;;2.33;;
36233;SDS011;43467;50.890;5.982;2022-08-01T14:18:48;2.70;;;2.05;;
36233;SDS011;43467;50.890;5.982;2022-08-01T14:21:14;7.63;;;2.67;;
36233;SDS011;43467;50.890;5.982;2022-08-01T14:23:40;4.35;;;2.22;;
36233;SDS011;43467;50.890;5.982;2022-08-01T14:26:06;3.35;;;2.22;;
36233;SDS011;43467;50.890;5.982;2022-08-01T14:28:32;4.18;;;2.22;;
36233;SDS011;43467;50.890;5.982;2022-08-01T14:30:58;3.58;;;2.42;;
36233;SDS011;43467;50.890;5.982;2022-08-01T14:33:24;5.88;;;2.20;;
36233;SDS011;43467;50.890;5.982;2022-08-01T14:35:49;6.00;;;2.67;;
36233;SDS011;43467;50.890;5.982;2022-08-01T14:38:15;2.67;;;2.47;;
36233;SDS011;43467;50.890;5.982;2022-08-01T14:40:40;4.35;;;2.30;;
36233;SDS011;43467;50.890;5.982;2022-08-01T14:43:06;4.55;;;2.63;;
36233;SDS011;43467;50.890;5.982;2022-08-01T14:45:31;3.25;;;2.20;;
36233;SDS011;43467;50.890;5.982;2022-08-01T14:47:58;3.92;;;2.55;;
36233;SDS011;43467;50.890;5.982;2022-08-01T14:50:23;3.88;;;2.47;;
36233;SDS011;43467;50.890;5.982;2022-08-01T14:52:51;3.72;;;2.53;;
36233;SDS011;43467;50.890;5.982;2022-08-01T14:55:17;4.50;;;2.75;;
36233;SDS011;43467;50.890;5.982;2022-08-01T14:57:43;3.03;;;2.10;;
36233;SDS011;43467;50.890;5.982;2022-08-01T15:00:09;5.90;;;3.05;;
36233;SDS011;43467;50.890;5.982;2022-08-01T15:02:37;2.58;;;2.25;;
36233;SDS011;43467;50.890;5.982;2022-08-01T15:05:03;3.53;;;2.22;;
36233;SDS011;43467;50.890;5.982;2022-08-01T15:07:28;2.85;;;1.98;;